createdAt,value
2022-10-31T00:00:35.179Z,4.6
2022-10-31T00:02:38.627Z,4.6
2022-10-31T00:04:42.115Z,5.6
2022-10-31T00:05:45.408Z,4.2
2022-10-31T00:07:48.947Z,4.1
2022-10-31T00:09:52.489Z,4.2
2022-10-31T00:11:56.003Z,4.6
2022-10-31T00:18:09.682Z,4.2
2022-10-31T00:20:13.215Z,5.1
2022-10-31T00:22:16.741Z,4.4
2022-10-31T00:24:20.287Z,4.4
2022-10-31T00:28:30.440Z,5.8
2022-10-31T00:32:37.527Z,6.1
2022-10-31T00:34:41.039Z,6.1
2022-10-31T00:36:44.569Z,5.8
2022-10-31T00:38:48.121Z,6.3
2022-10-31T00:40:51.649Z,6.1
2022-10-31T00:47:05.299Z,6.9
2022-10-31T00:53:15.898Z,6.5
2022-10-31T00:55:19.446Z,6.9
2022-10-31T00:57:26.056Z,6.5
2022-10-31T00:59:29.560Z,7
2022-10-31T01:01:33.229Z,6.4
2022-10-31T01:04:03.106Z,8
2022-10-31T01:06:06.609Z,6.6
2022-10-31T01:08:10.123Z,7.1
2022-10-31T01:10:16.728Z,6.9
2022-10-31T01:12:20.233Z,6.2
2022-10-31T01:14:23.811Z,6.6
2022-10-31T01:16:27.294Z,9.5
2022-10-31T01:18:30.835Z,6.9
2022-10-31T01:20:34.320Z,6.4
2022-10-31T01:22:37.850Z,7.2
2022-10-31T01:24:44.461Z,6.8
2022-10-31T01:26:47.991Z,6.8
2022-10-31T01:28:51.552Z,6.3
2022-10-31T01:30:55.051Z,6.7
2022-10-31T01:32:59.017Z,7.6
2022-10-31T01:35:02.188Z,7
2022-10-31T01:37:05.663Z,8.1
2022-10-31T01:39:12.314Z,7.7
2022-10-31T01:41:15.760Z,6.8
2022-10-31T01:43:19.294Z,7.7
2022-10-31T01:45:22.822Z,7.6
2022-10-31T01:47:26.359Z,7.1
2022-10-31T01:49:29.888Z,7.5
2022-10-31T01:51:33.409Z,8.3
2022-10-31T01:53:40.029Z,8.2
2022-10-31T01:55:43.551Z,8.3
2022-10-31T01:57:47.076Z,7.7
2022-10-31T02:00:54.018Z,7
2022-10-31T02:11:14.729Z,7.8
2022-10-31T02:13:18.297Z,7.1
2022-10-31T02:15:21.776Z,7.1
2022-10-31T02:17:25.343Z,6.8
2022-10-31T02:19:28.911Z,7
2022-10-31T02:21:35.512Z,7.3
2022-10-31T02:23:39.052Z,6.9
2022-10-31T02:25:42.612Z,7.2
2022-10-31T02:27:46.149Z,7.6
2022-10-31T02:29:49.682Z,7.8
2022-10-31T02:31:53.235Z,8.7
2022-10-31T02:33:56.807Z,7.3
2022-10-31T02:36:03.415Z,8.1
2022-10-31T02:38:06.966Z,9.1
2022-10-31T02:40:10.541Z,9.5
2022-10-31T02:42:14.102Z,8.9
2022-10-31T02:44:17.623Z,8
2022-10-31T02:46:21.222Z,9.3
2022-10-31T02:48:24.749Z,9.7
2022-10-31T02:50:31.385Z,10
2022-10-31T02:52:34.935Z,9.6
2022-10-31T02:54:38.503Z,10.7
2022-10-31T02:55:41.813Z,10.7
2022-10-31T02:57:45.366Z,9.2
2022-10-31T02:59:48.940Z,10.1
2022-10-31T03:01:52.655Z,9.6
2022-10-31T03:04:00.689Z,10.1
2022-10-31T03:06:04.229Z,9.5
2022-10-31T03:08:07.823Z,10.7
2022-10-31T03:10:11.391Z,9.8
2022-10-31T03:12:14.944Z,10.4
2022-10-31T03:14:18.519Z,9.6
2022-10-31T03:16:22.024Z,10.3
2022-10-31T03:18:28.678Z,11.5
2022-10-31T03:20:32.271Z,9.2
2022-10-31T03:22:35.847Z,11.4
2022-10-31T03:24:39.398Z,8.9
2022-10-31T03:28:46.556Z,10
2022-10-31T03:30:50.095Z,10.4
2022-10-31T03:35:00.309Z,11
2022-10-31T03:37:03.854Z,11.5
2022-10-31T03:39:07.439Z,11.9
2022-10-31T03:41:11.009Z,10.5
2022-10-31T03:43:14.618Z,11.5
2022-10-31T03:45:18.149Z,11.7
2022-10-31T03:47:24.801Z,12.2
2022-10-31T03:49:28.376Z,12.2
2022-10-31T03:51:31.946Z,11.9
2022-10-31T03:52:35.287Z,11.6
2022-10-31T03:54:38.830Z,12.5
2022-10-31T03:56:42.406Z,10.9
2022-10-31T03:58:46.010Z,12.3
2022-10-31T04:00:52.654Z,12
2022-10-31T04:02:56.450Z,11.1
2022-10-31T04:04:59.812Z,12.8
2022-10-31T04:07:03.403Z,13
2022-10-31T04:09:06.999Z,12.9
2022-10-31T04:11:10.565Z,12.9
2022-10-31T04:13:14.175Z,12
2022-10-31T04:15:20.795Z,13.3
2022-10-31T04:17:24.355Z,12.8
2022-10-31T04:19:27.985Z,12.6
2022-10-31T04:21:31.555Z,12.4
2022-10-31T04:23:35.149Z,12.2
2022-10-31T04:25:38.722Z,13.8
2022-10-31T04:27:42.302Z,13.4
2022-10-31T04:29:50.864Z,14.5
2022-10-31T04:31:52.571Z,13.9
2022-10-31T04:33:56.184Z,13.9
2022-10-31T04:35:59.768Z,13.5
2022-10-31T04:38:03.319Z,14.4
2022-10-31T04:40:06.934Z,16.5
2022-10-31T04:42:10.518Z,13.8
2022-10-31T04:44:17.255Z,16.7
2022-10-31T04:46:20.752Z,15.6
2022-10-31T04:48:24.311Z,16.6
2022-10-31T04:50:48.490Z,19.4
2022-10-31T04:52:52.089Z,16.5
2022-10-31T04:54:55.654Z,15.8
2022-10-31T04:59:05.906Z,14.1
2022-10-31T05:01:09.765Z,14.3
2022-10-31T05:03:13.082Z,15
2022-10-31T05:05:16.682Z,13.9
2022-10-31T05:07:20.255Z,13.9
2022-10-31T05:09:23.840Z,12.9
2022-10-31T05:11:30.479Z,13.6
2022-10-31T05:13:34.071Z,14.9
2022-10-31T05:15:37.648Z,14.7
2022-10-31T05:17:41.250Z,13.6
2022-10-31T05:19:44.841Z,13.5
2022-10-31T05:21:48.448Z,13.2
2022-10-31T05:25:58.669Z,12.3
2022-10-31T05:30:05.832Z,14.2
2022-10-31T05:32:09.437Z,15
2022-10-31T05:34:13.006Z,14.3
2022-10-31T05:36:16.592Z,15
2022-10-31T05:38:20.187Z,16.3
2022-10-31T05:40:26.865Z,16.4
2022-10-31T05:45:37.370Z,15.1
2022-10-31T05:51:48.184Z,17.1
2022-10-31T05:55:58.438Z,18.2
2022-10-31T06:00:05.650Z,18.1
2022-10-31T06:02:09.238Z,18
2022-10-31T06:06:16.397Z,17.5
2022-10-31T06:08:23.080Z,19.3
2022-10-31T06:10:26.639Z,20.2
2022-10-31T06:16:37.437Z,17.8
2022-10-31T06:18:41.037Z,19.7
2022-10-31T06:22:51.275Z,20.9
2022-10-31T06:26:58.463Z,17.7
2022-10-31T06:29:04.150Z,20.5
2022-10-31T06:31:05.626Z,17.7
2022-10-31T06:33:09.238Z,18.1
2022-10-31T06:37:19.471Z,18.3
2022-10-31T06:39:23.028Z,17.1
2022-10-31T06:41:26.602Z,19.5
2022-10-31T06:42:29.978Z,17.3
2022-10-31T06:44:33.574Z,16.1
2022-10-31T06:46:37.162Z,17.6
2022-10-31T06:48:40.753Z,17.2
2022-10-31T06:52:50.980Z,17.3
2022-10-31T06:54:54.584Z,16.8
2022-10-31T06:56:58.173Z,17.6
2022-10-31T06:59:01.789Z,18.8
2022-10-31T07:01:05.543Z,16.8
2022-10-31T07:03:08.965Z,17.7
2022-10-31T07:05:15.645Z,17.5
2022-10-31T07:07:19.259Z,17.8
2022-10-31T07:09:22.860Z,19.8
2022-10-31T07:11:26.462Z,18.1
2022-10-31T07:13:30.128Z,20.3
2022-10-31T07:15:33.655Z,21
2022-10-31T07:17:37.259Z,20.5
2022-10-31T07:19:43.923Z,21.4
2022-10-31T07:21:47.487Z,22.1
2022-10-31T07:23:51.124Z,21.5
2022-10-31T07:25:54.771Z,22.9
2022-10-31T07:27:58.738Z,24.4
2022-10-31T07:30:01.990Z,25.4
2022-10-31T07:32:05.542Z,26.6
2022-10-31T07:34:12.211Z,30.4
2022-10-31T07:36:15.764Z,27.1
2022-10-31T07:38:19.361Z,27.6
2022-10-31T07:39:22.700Z,29.3
2022-10-31T07:41:26.310Z,27.5
2022-10-31T07:43:29.861Z,26.4
2022-10-31T07:45:33.470Z,26.8
2022-10-31T07:47:40.163Z,27.8
2022-10-31T07:49:43.727Z,25.8
2022-10-31T07:51:47.321Z,28.9
2022-10-31T07:53:50.890Z,26.3
2022-10-31T07:55:54.471Z,28.7
2022-10-31T07:57:58.404Z,28.8
2022-10-31T08:00:01.773Z,27.4
2022-10-31T08:04:11.888Z,29.6
2022-10-31T08:06:15.468Z,30.1
2022-10-31T08:14:29.763Z,30
2022-10-31T08:16:36.395Z,32.7
2022-10-31T08:18:39.973Z,31.7
2022-10-31T08:20:43.581Z,32.2
2022-10-31T08:22:47.156Z,31.1
2022-10-31T08:24:50.709Z,30.5
2022-10-31T08:26:54.271Z,32.1
2022-10-31T08:28:57.884Z,31.8
2022-10-31T08:31:04.509Z,34.8
2022-10-31T08:33:08.083Z,31.5
2022-10-31T08:35:11.696Z,32.9
2022-10-31T08:37:34.021Z,32.7
2022-10-31T08:39:37.541Z,31.6
2022-10-31T08:41:41.084Z,30.4
2022-10-31T08:43:47.717Z,28.5
2022-10-31T08:45:51.276Z,28.6
2022-10-31T08:47:54.800Z,28.8
2022-10-31T08:49:58.373Z,25.6
2022-10-31T08:52:01.954Z,27.6
2022-10-31T08:54:05.516Z,25.5
2022-10-31T08:56:09.056Z,25.7
2022-10-31T08:58:17.398Z,23.8
2022-10-31T09:00:20.924Z,21.6
2022-10-31T09:02:24.412Z,20.6
2022-10-31T09:04:27.863Z,19.9
2022-10-31T09:06:31.412Z,18.9
2022-10-31T09:08:34.923Z,16.7
2022-10-31T09:10:38.478Z,15.2
2022-10-31T09:12:45.093Z,14.1
2022-10-31T09:16:52.147Z,14.8
2022-10-31T09:20:59.151Z,16.1
2022-10-31T09:23:02.683Z,14.3
2022-10-31T09:25:06.196Z,15.1
2022-10-31T09:27:12.797Z,15.8
2022-10-31T09:31:19.778Z,15
2022-10-31T09:32:23.105Z,15.5
2022-10-31T09:34:26.585Z,14.6
2022-10-31T09:36:30.090Z,16.3
2022-10-31T09:38:33.589Z,15.7
2022-10-31T09:40:40.373Z,16.2
2022-10-31T09:42:43.663Z,16.5
2022-10-31T09:44:47.160Z,15
2022-10-31T09:46:50.641Z,15.7
2022-10-31T09:48:54.135Z,14.5
2022-10-31T09:50:57.644Z,16.3
2022-10-31T09:53:01.536Z,15.3
2022-10-31T09:55:07.711Z,15.8
2022-10-31T09:57:11.217Z,13.3
2022-10-31T10:01:18.245Z,15.8
2022-10-31T10:03:21.651Z,16.7
2022-10-31T10:05:25.149Z,16.1
2022-10-31T10:07:28.622Z,17.4
2022-10-31T10:11:38.654Z,18.3
2022-10-31T10:13:42.124Z,17.8
2022-10-31T10:15:45.642Z,17.2
2022-10-31T10:17:49.192Z,17.8
2022-10-31T10:19:52.597Z,16.6
2022-10-31T10:21:56.027Z,18.3
2022-10-31T10:24:02.639Z,18.9
2022-10-31T10:26:10.959Z,17.7
2022-10-31T10:28:09.610Z,16.7
2022-10-31T10:29:12.861Z,18.2
2022-10-31T10:31:16.341Z,17.7
2022-10-31T10:33:19.786Z,17
2022-10-31T10:35:23.249Z,16.6
2022-10-31T10:37:29.802Z,17
2022-10-31T10:43:40.308Z,17.9
2022-10-31T10:45:43.648Z,17.4
2022-10-31T10:49:50.594Z,15.9
2022-10-31T10:54:00.615Z,16.1
2022-10-31T10:56:04.137Z,16.5
2022-10-31T10:58:07.548Z,14.8
2022-10-31T11:00:11.034Z,15
2022-10-31T11:02:14.512Z,16.1
2022-10-31T11:04:17.921Z,14.2
2022-10-31T11:06:24.470Z,15.2
2022-10-31T11:08:27.989Z,14
2022-10-31T11:10:31.401Z,13
2022-10-31T11:12:34.859Z,14.5
2022-10-31T11:14:38.303Z,12.6
2022-10-31T11:16:41.829Z,14.6
2022-10-31T11:18:45.197Z,13.4
2022-10-31T11:20:51.815Z,12
2022-10-31T11:22:55.214Z,12.9
2022-10-31T11:24:58.649Z,12.8
2022-10-31T11:26:01.929Z,11.3
2022-10-31T11:32:12.271Z,10.9
2022-10-31T11:36:22.255Z,11.6
2022-10-31T11:40:29.217Z,11.1
2022-10-31T11:42:32.556Z,13.2
2022-10-31T11:44:35.970Z,11.6
2022-10-31T11:46:39.397Z,13.1
2022-10-31T11:48:45.939Z,11.6
2022-10-31T11:50:49.358Z,11.6
2022-10-31T11:56:59.611Z,11.3
2022-10-31T11:59:03.011Z,13.2
2022-10-31T12:01:06.461Z,12.6
2022-10-31T12:03:12.981Z,14
2022-10-31T12:05:16.328Z,14.4
2022-10-31T12:07:19.695Z,12.6
2022-10-31T12:09:23.166Z,12.7
2022-10-31T12:11:26.530Z,12.6
2022-10-31T12:13:29.897Z,14.1
2022-10-31T12:15:33.300Z,14.3
2022-10-31T12:17:39.729Z,14.7
2022-10-31T12:19:43.121Z,14.1
2022-10-31T12:21:46.502Z,16.6
2022-10-31T12:24:04.605Z,15
2022-10-31T12:26:07.998Z,16.8
2022-10-31T12:28:11.403Z,14.4
2022-10-31T12:30:17.886Z,16.5
2022-10-31T12:32:21.307Z,16.3
2022-10-31T12:34:24.688Z,15.7
2022-10-31T12:36:28.081Z,16.3
2022-10-31T12:38:31.505Z,14.9
2022-10-31T12:40:34.923Z,15.7
2022-10-31T12:42:38.360Z,15.5
2022-10-31T12:44:44.865Z,17
2022-10-31T12:48:55.487Z,18.6
2022-10-31T12:50:55.037Z,18.3
2022-10-31T12:55:01.810Z,16.9
2022-10-31T12:59:11.724Z,17.8
2022-10-31T13:05:21.817Z,16.5
2022-10-31T13:07:30.662Z,17.7
2022-10-31T13:09:28.582Z,16.7
2022-10-31T13:11:31.976Z,16.4
2022-10-31T13:13:38.406Z,16.2
2022-10-31T13:15:41.777Z,15.5
2022-10-31T13:17:45.149Z,16.3
2022-10-31T13:18:48.413Z,15.6
2022-10-31T13:20:55.532Z,15.5
2022-10-31T13:24:58.631Z,16.3
2022-10-31T13:33:15.306Z,13.6
2022-10-31T13:35:18.653Z,15.2
2022-10-31T13:37:22.061Z,14.4
2022-10-31T13:39:25.460Z,14.9
2022-10-31T13:41:31.983Z,14.9
2022-10-31T13:43:35.373Z,13.9
2022-10-31T13:45:38.784Z,14.3
2022-10-31T13:47:42.314Z,13
2022-10-31T13:49:45.588Z,14.1
2022-10-31T13:55:58.801Z,14.5
2022-10-31T13:58:02.471Z,14.5
2022-10-31T14:00:05.680Z,13.2
2022-10-31T14:02:09.109Z,14.1
2022-10-31T14:04:16.006Z,14.6
2022-10-31T14:06:15.838Z,14.2
2022-10-31T14:08:19.266Z,15.1
2022-10-31T14:10:25.804Z,14.6
2022-10-31T14:12:29.069Z,13.8
2022-10-31T14:14:32.444Z,15.7
2022-10-31T14:15:35.708Z,17.2
2022-10-31T14:17:39.038Z,16.3
2022-10-31T14:19:42.475Z,15.3
2022-10-31T14:21:45.861Z,14.6
2022-10-31T14:23:54.223Z,15.1
2022-10-31T14:25:55.756Z,15.2
2022-10-31T14:27:59.613Z,14.9
2022-10-31T14:30:02.593Z,15.3
2022-10-31T14:32:05.993Z,15.5
2022-10-31T14:34:09.414Z,13.4
2022-10-31T14:36:18.832Z,15.5
2022-10-31T14:38:19.261Z,15.5
2022-10-31T14:40:22.662Z,17
2022-10-31T14:42:26.096Z,15.7
2022-10-31T14:44:29.486Z,15.6
2022-10-31T14:46:32.916Z,17.2
2022-10-31T14:48:36.310Z,15.1
2022-10-31T14:50:39.748Z,16.2
2022-10-31T14:52:46.283Z,17.8
2022-10-31T14:56:54.624Z,16.9
2022-10-31T14:58:58.058Z,16.4
2022-10-31T15:01:01.576Z,17.2
2022-10-31T15:03:05.017Z,17.3
2022-10-31T15:05:08.336Z,17.5
2022-10-31T15:07:14.859Z,18
2022-10-31T15:09:18.282Z,19.1
2022-10-31T15:11:21.709Z,17.9
2022-10-31T15:12:24.983Z,17.7
2022-10-31T15:14:28.433Z,16.1
2022-10-31T15:18:35.294Z,17.2
2022-10-31T15:20:41.819Z,19.2
2022-10-31T15:22:45.264Z,17.7
2022-10-31T15:24:48.667Z,17.8
2022-10-31T15:28:55.547Z,18
2022-10-31T15:30:59.160Z,18.1
2022-10-31T15:33:02.421Z,17
2022-10-31T15:35:08.954Z,18.5
2022-10-31T15:37:12.388Z,19.3
2022-10-31T15:39:15.836Z,18
2022-10-31T15:41:19.331Z,18
2022-10-31T15:43:22.683Z,18.2
2022-10-31T15:45:27.143Z,16.6
2022-10-31T15:47:29.617Z,18.4
2022-10-31T15:49:36.141Z,20.5
2022-10-31T15:51:39.630Z,18.2
2022-10-31T15:53:42.997Z,16.5
2022-10-31T15:55:46.414Z,16.8
2022-10-31T15:57:49.893Z,16.7
2022-10-31T15:59:53.335Z,16.9
2022-10-31T16:02:01.400Z,18.8
2022-10-31T16:04:04.103Z,18.7
2022-10-31T16:06:06.762Z,19.7
2022-10-31T16:08:19.688Z,19.3
2022-10-31T16:10:32.268Z,19
2022-10-31T16:16:45.739Z,19
2022-10-31T16:18:49.191Z,19.7
2022-10-31T16:20:52.641Z,18.6
2022-10-31T16:22:56.092Z,18.9
2022-10-31T16:24:59.543Z,17.5
2022-10-31T16:27:03.010Z,19.2
2022-10-31T16:29:06.443Z,18.7
2022-10-31T16:31:13.020Z,20
2022-10-31T16:33:16.488Z,18.2
2022-10-31T16:35:19.895Z,18.6
2022-10-31T16:37:23.357Z,20.4
2022-10-31T16:39:26.813Z,18.9
2022-10-31T16:41:30.280Z,19
2022-10-31T16:43:33.722Z,19.2
2022-10-31T16:45:40.275Z,20
2022-10-31T16:47:43.713Z,19.4
2022-10-31T16:49:47.154Z,18.4
2022-10-31T16:51:50.596Z,21.8
2022-10-31T16:53:54.069Z,20.7
2022-10-31T16:55:57.489Z,19.1
2022-10-31T16:58:01.161Z,20
2022-10-31T17:00:07.478Z,20.6
2022-10-31T17:02:11.014Z,20.4
2022-10-31T17:04:14.348Z,20
2022-10-31T17:05:17.629Z,20.4
2022-10-31T17:07:21.077Z,19.9
2022-10-31T17:09:24.516Z,18.9
2022-10-31T17:11:27.990Z,19.8
2022-10-31T17:13:34.494Z,19.6
2022-10-31T17:15:37.948Z,20.5
2022-10-31T17:17:41.369Z,20.3
2022-10-31T17:19:44.808Z,20
2022-10-31T17:21:48.261Z,22.7
2022-10-31T17:23:51.716Z,20.7
2022-10-31T17:25:55.183Z,21.9
2022-10-31T17:28:01.693Z,21
2022-10-31T17:30:05.140Z,18.7
2022-10-31T17:32:08.549Z,19.5
2022-10-31T17:34:11.988Z,20.4
2022-10-31T17:36:15.438Z,20.1
2022-10-31T17:38:18.877Z,19
2022-10-31T17:40:22.354Z,19.9
2022-10-31T17:42:28.904Z,20.6
2022-10-31T17:44:32.349Z,18.8
2022-10-31T17:46:35.821Z,21.3
2022-10-31T17:48:39.233Z,19.7
2022-10-31T17:50:42.683Z,19.9
2022-10-31T17:52:46.150Z,23.1
2022-10-31T17:54:49.606Z,20.4
2022-10-31T17:56:56.149Z,20.7
2022-10-31T17:58:59.726Z,20.9
2022-10-31T18:01:03.129Z,22.1
2022-10-31T18:02:06.498Z,23.9
2022-10-31T18:04:09.825Z,20
2022-10-31T18:06:13.287Z,19.7
2022-10-31T18:08:16.738Z,19.7
2022-10-31T18:10:23.276Z,22.3
2022-10-31T18:12:26.732Z,20.4
2022-10-31T18:20:40.625Z,20
2022-10-31T18:22:44.086Z,20.6
2022-10-31T18:26:54.147Z,22.9
2022-10-31T18:28:57.633Z,21
2022-10-31T18:31:01.085Z,21.8
2022-10-31T18:33:04.578Z,22.6
2022-10-31T18:35:08.080Z,23.4
2022-10-31T18:37:11.545Z,23
2022-10-31T18:39:18.113Z,23.4
2022-10-31T18:41:21.625Z,22.2
2022-10-31T18:43:25.089Z,21.1
2022-10-31T18:45:45.776Z,22.8
2022-10-31T18:47:32.187Z,21.8
2022-10-31T18:49:35.573Z,23.3
2022-10-31T18:51:39.076Z,21.9
2022-10-31T18:53:45.657Z,24.8
2022-10-31T18:55:50.163Z,23.1
2022-10-31T18:57:52.648Z,23.8
2022-10-31T18:58:55.928Z,24.4
2022-10-31T19:00:59.532Z,24
2022-10-31T19:03:03.279Z,27.8
2022-10-31T19:05:06.535Z,26.5
2022-10-31T19:07:13.071Z,27.3
2022-10-31T19:09:16.559Z,23.8
2022-10-31T19:11:20.090Z,26.2
2022-10-31T19:13:23.601Z,29
2022-10-31T19:17:30.643Z,29.9
2022-10-31T19:19:34.154Z,29.5
2022-10-31T19:23:44.254Z,42.3
2022-10-31T19:25:47.766Z,34.8
2022-10-31T19:27:51.276Z,33.1
2022-10-31T19:29:54.859Z,30.4
2022-10-31T19:36:08.454Z,32.2
2022-10-31T19:38:11.985Z,31.3
2022-10-31T19:40:15.493Z,30.6
2022-10-31T19:42:19.016Z,30.5
2022-10-31T19:44:22.557Z,30.8
2022-10-31T19:46:52.797Z,34.5
2022-10-31T19:48:29.560Z,32.4
2022-10-31T19:50:36.140Z,30.2
2022-10-31T19:57:01.246Z,30.6
2022-10-31T19:59:04.728Z,26.7
2022-10-31T20:01:08.298Z,24.9
2022-10-31T20:03:18.400Z,25.3
2022-10-31T20:05:18.291Z,23.7
2022-10-31T20:07:21.810Z,24.4
2022-10-31T20:09:25.367Z,24.2
2022-10-31T20:11:28.779Z,21.1
2022-10-31T20:15:35.794Z,22.7
2022-10-31T20:19:45.919Z,22.8
2022-10-31T20:21:49.400Z,20.7
2022-10-31T20:32:09.980Z,18.7
2022-10-31T20:34:13.487Z,17.6
2022-10-31T20:36:16.979Z,18.4
2022-10-31T20:38:20.476Z,15.9
2022-10-31T20:40:24.004Z,15.9
2022-10-31T20:42:27.509Z,15.6
2022-10-31T20:44:31.024Z,16.9
2022-10-31T20:46:37.799Z,16.1
2022-10-31T20:48:41.124Z,14.2
2022-10-31T20:51:49.425Z,16.4
2022-10-31T20:53:52.873Z,14.9
2022-10-31T20:55:56.361Z,12.7
2022-10-31T20:57:59.892Z,13.9
2022-10-31T21:00:06.485Z,13.2
2022-10-31T21:02:10.174Z,13.9
2022-10-31T21:04:13.475Z,13.2
2022-10-31T21:06:16.990Z,13.2
2022-10-31T21:08:20.488Z,13.5
2022-10-31T21:10:24.013Z,13
2022-10-31T21:14:34.093Z,12.4
2022-10-31T21:16:37.575Z,12.9
2022-10-31T21:18:41.126Z,12.7
2022-10-31T21:20:44.629Z,12.4
2022-10-31T21:24:51.620Z,11.9
2022-10-31T21:26:55.131Z,12.5
2022-10-31T21:29:01.719Z,13.6
2022-10-31T21:31:05.228Z,12.4
2022-10-31T21:35:12.254Z,12.3
2022-10-31T21:37:15.731Z,11.1
2022-10-31T21:41:22.755Z,11.1
2022-10-31T21:45:32.872Z,10.5
2022-10-31T21:47:36.393Z,11
2022-10-31T21:48:39.669Z,10.6
2022-10-31T21:50:43.177Z,9.9
2022-10-31T21:52:46.661Z,10.6
2022-10-31T21:54:50.177Z,10.3
2022-10-31T21:56:56.744Z,9.9
2022-10-31T21:59:00.247Z,10.6
2022-10-31T22:15:31.273Z,9.6
2022-10-31T22:17:34.735Z,9.3
2022-10-31T22:19:38.265Z,9.4
2022-10-31T22:21:41.734Z,9.3
2022-10-31T22:23:45.232Z,8.3
2022-10-31T22:25:51.854Z,9.4
2022-10-31T22:27:55.311Z,8.7
2022-10-31T22:29:58.862Z,9
2022-10-31T22:32:02.363Z,8.5
2022-10-31T22:34:05.868Z,7.7
2022-10-31T22:36:09.384Z,7.7
2022-10-31T22:38:12.857Z,7.3
2022-10-31T22:40:19.437Z,6.3
2022-10-31T22:42:22.917Z,6.4
2022-10-31T22:44:26.465Z,7.4
2022-10-31T22:45:29.747Z,8.5
2022-10-31T22:47:33.286Z,6.5
2022-10-31T22:49:36.730Z,6.4
2022-10-31T22:51:40.247Z,6.3
2022-10-31T22:53:46.845Z,6.6
2022-10-31T22:55:50.376Z,7.6
2022-10-31T22:57:53.836Z,5.9
2022-10-31T22:59:57.353Z,6
2022-10-31T23:02:00.982Z,7.5
2022-10-31T23:04:04.403Z,7.6
2022-10-31T23:06:07.831Z,5.8
2022-10-31T23:08:14.426Z,6.3
2022-10-31T23:10:17.940Z,5.4
2022-10-31T23:12:21.454Z,6.4
2022-10-31T23:14:24.959Z,5.7
2022-10-31T23:16:28.475Z,6.2
2022-10-31T23:18:48.984Z,5.8
2022-10-31T23:20:35.462Z,6
2022-10-31T23:22:42.057Z,6.3
2022-10-31T23:24:45.538Z,7.4
2022-10-31T23:26:49.037Z,6.1
2022-10-31T23:28:52.534Z,5.4
2022-10-31T23:30:56.024Z,6.5
2022-10-31T23:32:59.807Z,6.7
2022-10-31T23:35:03.039Z,6.4
2022-10-31T23:37:09.643Z,6
2022-10-31T23:39:13.149Z,5.5
2022-10-31T23:41:16.656Z,6.5
2022-10-31T23:43:34.924Z,6.5
2022-10-31T23:45:38.435Z,5.2
2022-10-31T23:47:43.526Z,5.7
2022-10-31T23:49:48.518Z,5.8
2022-10-31T23:51:51.995Z,6.5
2022-10-31T23:53:55.525Z,5.6
2022-10-31T23:55:58.998Z,5.3
